Time;durP1;ratioP1;P1;durP2;ratioP2;P2;SDS_P1;SDS_P2;PMS_P1;PMS_P2;Temp;Humidity;BMP_temperature;BMP_pressure;BME280_temperature;BME280_humidity;BME280_pressure;Samples;Min_cycle;Max_cycle;Signal;HPM_P1;HPM_P2
2023/12/12 00:02:12;;;;;;;20.88;5.30;;;;;;;8.63;83.08;97549.03;5040910;28;20404;-73
2023/12/12 00:04:38;;;;;;;17.75;5.25;;;;;;;8.80;82.66;97574.78;5019727;28;20024;-73
2023/12/12 00:07:04;;;;;;;21.75;5.53;;;;;;;8.59;83.20;97558.66;5034332;28;20049;-73
2023/12/12 00:09:29;;;;;;;20.38;5.53;;;;;;;8.75;82.66;97573.91;5045251;28;20037;-73
2023/12/12 00:11:54;;;;;;;15.80;4.95;;;;;;;8.67;83.30;97571.63;5041376;28;20409;-72
2023/12/12 00:14:20;;;;;;;20.98;5.18;;;;;;;8.72;82.60;97569.03;5033800;28;20029;-73
2023/12/12 00:16:45;;;;;;;17.02;4.72;;;;;;;8.69;82.63;97558.78;5041109;28;20708;-72
2023/12/12 00:19:10;;;;;;;19.05;4.57;;;;;;;8.67;82.62;97561.72;5041021;28;20033;-72
2023/12/12 00:21:36;;;;;;;14.05;4.70;;;;;;;8.60;82.39;97544.16;5045611;28;20037;-73
2023/12/12 00:24:02;;;;;;;15.18;4.80;;;;;;;8.65;81.78;97552.28;5028730;28;20475;-72
2023/12/12 00:26:28;;;;;;;21.25;4.78;;;;;;;8.78;81.50;97568.03;5035139;28;20459;-72
2023/12/12 00:28:54;;;;;;;19.83;4.90;;;;;;;8.81;81.36;97567.53;5044867;28;20029;-73
2023/12/12 00:31:19;;;;;;;16.80;4.85;;;;;;;8.74;81.26;97572.28;5038469;28;20503;-73
2023/12/12 00:33:44;;;;;;;16.20;4.82;;;;;;;8.76;81.32;97570.97;5027267;28;20024;-73
2023/12/12 00:36:10;;;;;;;16.05;4.75;;;;;;;8.69;81.70;97574.88;5036696;28;20040;-74
2023/12/12 00:38:36;;;;;;;15.65;4.70;;;;;;;8.68;81.56;97573.28;5042245;28;20536;-73
2023/12/12 00:41:01;;;;;;;15.45;4.63;;;;;;;8.75;80.80;97584.66;5036002;28;20116;-73
2023/12/12 00:43:27;;;;;;;14.80;4.80;;;;;;;8.81;80.95;97589.00;5031980;28;20112;-74
2023/12/12 00:45:52;;;;;;;15.63;4.80;;;;;;;8.77;81.11;97587.91;5033093;28;20073;-74
2023/12/12 00:48:18;;;;;;;19.48;4.65;;;;;;;8.78;80.46;97584.13;5040958;28;20051;-74
2023/12/12 00:50:44;;;;;;;20.25;4.53;;;;;;;8.77;80.85;97604.81;5038244;28;20037;-74
2023/12/12 00:53:09;;;;;;;16.55;5.03;;;;;;;8.67;82.03;97579.69;5030709;28;20025;-73
2023/12/12 00:55:34;;;;;;;20.17;4.80;;;;;;;8.82;81.44;97596.03;5032516;28;20037;-73
2023/12/12 00:58:00;;;;;;;18.90;5.10;;;;;;;8.80;81.47;97587.38;5041148;28;20033;-72
2023/12/12 01:00:25;;;;;;;16.00;5.05;;;;;;;8.84;81.60;97594.72;5040430;28;20116;-73
2023/12/12 01:02:50;;;;;;;12.20;4.38;;;;;;;8.86;81.33;97599.81;5020130;28;20033;-73
2023/12/12 01:05:16;;;;;;;19.80;5.03;;;;;;;8.77;81.73;97598.63;5025576;28;20120;-73
2023/12/12 01:07:41;;;;;;;20.63;5.40;;;;;;;8.77;81.86;97609.38;5038986;28;20021;-74
2023/12/12 01:10:07;;;;;;;19.20;5.13;;;;;;;8.78;82.00;97619.03;5038267;28;20116;-73
2023/12/12 01:12:33;;;;;;;23.17;4.88;;;;;;;8.69;81.68;97596.34;5016994;28;20025;-74
2023/12/12 01:14:59;;;;;;;15.50;4.32;;;;;;;8.79;82.25;97608.06;5042532;28;20049;-74
2023/12/12 01:17:25;;;;;;;16.88;4.75;;;;;;;8.81;82.22;97602.44;5031622;28;20072;-73
2023/12/12 01:19:51;;;;;;;16.42;5.05;;;;;;;8.80;81.67;97598.13;5018415;28;20045;-73
2023/12/12 01:22:16;;;;;;;19.63;5.47;;;;;;;8.81;81.68;97613.19;5043551;28;20112;-74
2023/12/12 01:24:42;;;;;;;17.95;4.82;;;;;;;8.78;82.35;97616.34;5032694;28;20038;-74
2023/12/12 01:27:08;;;;;;;21.80;4.43;;;;;;;8.69;82.37;97599.84;5033201;28;20025;-74
2023/12/12 01:29:34;;;;;;;16.67;5.07;;;;;;;8.75;81.98;97595.38;5045749;28;20045;-74
2023/12/12 01:32:00;;;;;;;17.88;4.88;;;;;;;8.67;82.32;97598.47;5030154;28;20029;-74
2023/12/12 01:34:26;;;;;;;18.75;5.40;;;;;;;8.65;82.44;97595.22;5048575;28;20397;-74
2023/12/12 01:36:51;;;;;;;19.80;4.70;;;;;;;8.74;82.03;97607.16;5020592;28;20026;-73
2023/12/12 01:39:17;;;;;;;17.27;5.15;;;;;;;8.66;81.99;97602.25;5037694;28;20033;-74
2023/12/12 01:41:46;;;;;;;22.55;5.25;;;;;;;8.57;82.36;97592.94;5036001;28;20028;-74
2023/12/12 01:44:11;;;;;;;17.65;5.57;;;;;;;8.69;82.50;97623.19;5042953;28;20037;-73
2023/12/12 01:46:36;;;;;;;17.77;4.95;;;;;;;8.55;82.92;97600.44;5031002;28;20036;-74
2023/12/12 01:49:02;;;;;;;19.35;5.57;;;;;;;8.63;82.73;97608.09;5029713;28;20044;-73
2023/12/12 01:51:27;;;;;;;19.40;5.10;;;;;;;8.53;82.52;97597.19;5034012;28;20022;-74
2023/12/12 01:53:53;;;;;;;19.98;5.05;;;;;;;8.51;82.86;97610.03;5025132;28;20091;-74
2023/12/12 01:56:19;;;;;;;24.00;5.65;;;;;;;8.43;82.42;97607.75;5044831;28;20035;-74
2023/12/12 01:58:47;;;;;;;20.48;5.57;;;;;;;8.49;82.55;97612.16;5045041;28;20107;-73
2023/12/12 02:01:12;;;;;;;16.88;5.03;;;;;;;8.47;83.29;97608.91;5018599;28;20030;-74
2023/12/12 02:03:40;;;;;;;14.73;4.65;;;;;;;8.43;83.19;97603.22;5045043;28;20041;-73
2023/12/12 02:06:06;;;;;;;23.92;5.90;;;;;;;8.41;82.49;97601.84;5022101;28;20536;-73
2023/12/12 02:08:32;;;;;;;20.30;5.47;;;;;;;8.51;82.60;97607.38;5043181;28;20049;-72
2023/12/12 02:10:57;;;;;;;22.80;5.20;;;;;;;8.41;83.36;97599.16;5016976;28;20501;-73
2023/12/12 02:13:22;;;;;;;23.67;5.07;;;;;;;8.50;82.71;97609.22;5046888;28;20115;-72
2023/12/12 02:15:48;;;;;;;16.90;4.93;;;;;;;8.38;83.41;97588.94;5047437;28;20104;-72
2023/12/12 02:18:16;;;;;;;18.67;4.93;;;;;;;8.43;82.95;97600.53;5049176;28;20393;-73
2023/12/12 02:20:42;;;;;;;15.63;5.10;;;;;;;8.45;83.17;97594.94;5045050;28;20436;-73
2023/12/12 02:23:08;;;;;;;19.98;5.88;;;;;;;8.39;82.92;97598.59;5049274;28;20076;-72
2023/12/12 02:25:33;;;;;;;15.98;4.93;;;;;;;8.34;83.87;97600.13;5043679;28;20500;-72
2023/12/12 02:27:59;;;;;;;16.98;5.82;;;;;;;8.34;83.25;97600.13;5047489;28;20075;-72
2023/12/12 02:30:25;;;;;;;14.57;4.60;;;;;;;8.45;82.82;97603.00;5031877;28;20029;-73
2023/12/12 02:32:50;;;;;;;14.52;4.75;;;;;;;8.47;82.75;97598.19;5040398;28;20038;-73
2023/12/12 02:35:15;;;;;;;18.58;5.45;;;;;;;8.40;83.64;97601.03;5034045;28;20029;-74
2023/12/12 02:37:41;;;;;;;13.82;4.50;;;;;;;8.38;83.66;97596.97;5027894;28;20028;-73
2023/12/12 02:40:08;;;;;;;15.95;4.63;;;;;;;8.33;83.33;97593.13;5044621;28;20168;-73
2023/12/12 02:42:33;;;;;;;17.77;4.82;;;;;;;8.29;83.59;97575.91;5037486;28;20079;-72
2023/12/12 02:44:59;;;;;;;15.65;4.63;;;;;;;8.28;83.47;97593.06;5024143;28;20115;-73
2023/12/12 02:47:24;;;;;;;18.52;4.90;;;;;;;8.31;82.91;97579.16;5031141;28;20040;-72
2023/12/12 02:49:50;;;;;;;17.95;5.10;;;;;;;8.20;83.13;97582.72;5033728;28;20024;-73
2023/12/12 02:52:15;;;;;;;16.50;4.80;;;;;;;8.19;83.07;97586.44;5012014;28;20761;-74
2023/12/12 02:54:41;;;;;;;19.45;5.00;;;;;;;8.07;83.60;97572.31;5046797;28;20366;-73
2023/12/12 02:57:07;;;;;;;21.05;5.13;;;;;;;8.10;83.06;97577.19;5042719;28;20042;-74
2023/12/12 02:59:32;;;;;;;19.80;4.78;;;;;;;8.08;83.65;97590.03;5043887;28;20568;-73
2023/12/12 03:01:57;;;;;;;15.57;4.72;;;;;;;8.12;84.00;97585.78;5046901;28;20112;-73
2023/12/12 03:04:23;;;;;;;21.05;5.50;;;;;;;8.11;83.88;97589.53;5035346;28;20032;-74
2023/12/12 03:06:48;;;;;;;22.75;5.00;;;;;;;7.95;83.85;97558.19;5040826;28;20037;-74
2023/12/12 03:09:14;;;;;;;20.58;5.22;;;;;;;7.93;83.88;97552.25;5026844;28;20481;-74
2023/12/12 03:11:39;;;;;;;19.58;6.07;;;;;;;8.03;83.83;97557.75;5041800;28;20045;-74
2023/12/12 03:14:04;;;;;;;15.40;4.72;;;;;;;8.13;84.29;97571.34;5036507;28;20028;-74
2023/12/12 03:16:30;;;;;;;23.30;5.60;;;;;;;8.01;84.16;97562.56;5040989;28;20072;-74
2023/12/12 03:18:55;;;;;;;17.30;4.85;;;;;;;8.03;83.87;97562.31;5041746;28;20037;-74
2023/12/12 03:21:20;;;;;;;19.77;5.57;;;;;;;8.08;84.21;97575.81;5034048;28;20043;-73
2023/12/12 03:23:49;;;;;;;20.95;4.95;;;;;;;8.03;83.50;97571.16;5035805;28;20428;-74
2023/12/12 03:26:14;;;;;;;14.93;4.47;;;;;;;8.11;84.24;97584.19;5044165;28;20048;-74
2023/12/12 03:28:39;;;;;;;17.55;5.40;;;;;;;8.02;83.73;97566.88;5031805;28;20022;-74
2023/12/12 03:31:05;;;;;;;24.60;5.45;;;;;;;8.00;84.48;97560.13;5045968;28;20550;-73
2023/12/12 03:33:30;;;;;;;14.45;5.07;;;;;;;8.00;84.13;97563.63;5032616;28;20032;-74
2023/12/12 03:35:56;;;;;;;22.48;5.45;;;;;;;8.04;83.56;97555.91;5025680;28;20570;-74
2023/12/12 03:38:21;;;;;;;16.85;5.05;;;;;;;7.99;83.91;97553.94;5033379;28;20033;-74
2023/12/12 03:40:47;;;;;;;17.73;4.82;;;;;;;8.06;84.20;97559.97;5031981;28;20041;-74
2023/12/12 03:43:12;;;;;;;21.25;5.03;;;;;;;7.94;83.95;97547.69;5037118;28;20021;-74
2023/12/12 03:45:38;;;;;;;24.98;5.18;;;;;;;8.07;84.04;97577.69;5022906;28;20038;-73
2023/12/12 03:48:04;;;;;;;22.35;5.40;;;;;;;8.03;83.60;97571.16;5036880;28;20048;-73
2023/12/12 03:50:29;;;;;;;19.60;5.65;;;;;;;7.99;84.05;97567.34;5023818;28;20079;-74
2023/12/12 03:52:54;;;;;;;20.58;5.30;;;;;;;7.98;83.69;97565.72;5031694;28;20029;-73
2023/12/12 03:55:20;;;;;;;18.65;5.60;;;;;;;7.90;83.79;97554.59;5034256;28;20057;-73
2023/12/12 03:57:45;;;;;;;18.95;5.38;;;;;;;7.87;83.80;97553.22;5032788;28;20033;-74
2023/12/12 04:00:11;;;;;;;21.67;5.85;;;;;;;7.82;83.03;97553.13;5031324;28;20029;-74
2023/12/12 04:02:40;;;;;;;20.55;5.10;;;;;;;7.87;84.00;97561.25;5027558;28;20076;-73
2023/12/12 04:05:09;;;;;;;15.27;5.43;;;;;;;7.91;83.23;97569.63;5022459;28;20439;-73
2023/12/12 04:07:36;;;;;;;19.08;4.75;;;;;;;7.83;83.68;97568.16;5045752;28;20041;-73
2023/12/12 04:10:02;;;;;;;21.30;5.60;;;;;;;7.95;83.11;97590.34;5036020;28;20112;-73
2023/12/12 04:12:28;;;;;;;21.38;5.90;;;;;;;7.72;83.58;97558.31;5034671;28;20396;-73
2023/12/12 04:14:53;;;;;;;20.48;5.25;;;;;;;7.75;83.71;97573.91;5044243;28;20063;-73
2023/12/12 04:17:18;;;;;;;17.45;4.55;;;;;;;7.84;84.23;97601.94;5022362;28;20036;-73
2023/12/12 04:19:44;;;;;;;23.15;6.38;;;;;;;7.82;84.10;97590.66;5039857;28;20053;-73
2023/12/12 04:22:09;;;;;;;15.88;5.00;;;;;;;7.74;84.21;97577.66;5039075;28;20025;-73
2023/12/12 04:24:35;;;;;;;25.05;5.72;;;;;;;7.73;84.29;97581.38;5041077;28;20378;-72
2023/12/12 04:27:00;;;;;;;21.55;5.47;;;;;;;7.69;84.20;97574.88;5041660;28;20025;-73
2023/12/12 04:29:26;;;;;;;23.45;5.68;;;;;;;7.86;83.96;97597.16;5040584;28;20694;-74
2023/12/12 04:31:51;;;;;;;24.77;6.03;;;;;;;7.83;84.02;97588.78;5033461;28;20037;-74
2023/12/12 04:34:17;;;;;;;18.75;5.40;;;;;;;7.85;84.07;97594.72;5032909;28;20095;-72
2023/12/12 04:36:42;;;;;;;24.08;6.53;;;;;;;7.80;84.53;97584.72;5039383;28;20074;-74
2023/12/12 04:39:14;;;;;;;23.85;6.75;;;;;;;7.75;83.91;97579.25;5030522;28;20099;-74
2023/12/12 04:41:39;;;;;;;20.38;5.93;;;;;;;7.75;84.30;97579.25;5040534;28;20047;-74
2023/12/12 04:44:06;;;;;;;22.30;6.25;;;;;;;7.89;84.37;97595.88;5035169;28;20389;-74
2023/12/12 04:46:31;;;;;;;18.30;5.68;;;;;;;7.89;84.38;97606.59;5043886;28;20048;-74
2023/12/12 04:48:58;;;;;;;24.73;6.22;;;;;;;7.80;84.82;97587.41;5035797;28;20026;-74
2023/12/12 04:51:23;;;;;;;23.98;6.18;;;;;;;7.88;84.95;97605.78;5031547;28;20493;-74
2023/12/12 04:53:49;;;;;;;22.90;5.75;;;;;;;7.87;84.80;97609.50;5040149;28;20035;-73
2023/12/12 04:56:14;;;;;;;20.77;5.68;;;;;;;7.86;84.44;97607.88;5043160;28;20516;-72
2023/12/12 04:58:39;;;;;;;20.33;5.43;;;;;;;7.64;84.10;97574.78;5037888;28;20028;-73
2023/12/12 05:01:05;;;;;;;28.15;6.47;;;;;;;7.79;84.34;97601.88;5031499;28;20051;-73
2023/12/12 05:03:32;;;;;;;20.80;5.47;;;;;;;7.84;84.56;97609.97;5030896;28;20388;-74
2023/12/12 05:05:58;;;;;;;22.38;5.95;;;;;;;7.34;84.48;97528.69;5034099;28;20044;-74
2023/12/12 05:08:23;;;;;;;26.80;6.90;;;;;;;7.80;84.67;97603.47;5012066;28;20018;-74
2023/12/12 05:10:48;;;;;;;22.52;6.32;;;;;;;7.71;84.24;97582.66;5031523;28;20481;-73
2023/12/12 05:13:14;;;;;;;29.25;7.13;;;;;;;7.74;84.72;97588.38;5037626;28;20021;-74
2023/12/12 05:15:39;;;;;;;25.95;7.15;;;;;;;7.69;84.17;97580.25;5025080;28;20029;-74
2023/12/12 05:18:07;;;;;;;28.88;6.75;;;;;;;7.70;84.96;97581.06;5043511;28;20059;-74
2023/12/12 05:20:33;;;;;;;21.08;7.30;;;;;;;7.60;85.07;97577.16;5045199;28;20099;-74
2023/12/12 05:22:58;;;;;;;25.08;6.80;;;;;;;7.66;85.16;97581.53;5039566;28;20094;-74
2023/12/12 05:25:24;;;;;;;24.52;7.97;;;;;;;7.62;84.68;97580.38;5036745;28;20076;-75
2023/12/12 05:27:49;;;;;;;43.75;20.95;;;;;;;7.53;84.62;97570.31;5025290;28;20025;-74
2023/12/12 05:30:14;;;;;;;58.13;34.92;;;;;;;7.64;85.84;97593.53;5038242;28;20048;-74
2023/12/12 05:32:40;;;;;;;44.53;25.02;;;;;;;7.47;85.64;97566.69;5043099;28;20037;-74
2023/12/12 05:35:07;;;;;;;40.03;23.35;;;;;;;7.62;84.72;97595.66;5042254;28;20052;-73
2023/12/12 05:37:32;;;;;;;28.42;11.18;;;;;;;7.43;84.92;97580.81;5043465;28;20098;-76
2023/12/12 05:39:58;;;;;;;30.17;8.27;;;;;;;7.36;85.36;97566.75;5036117;28;20049;-76
2023/12/12 05:42:23;;;;;;;28.55;10.45;;;;;;;7.52;85.31;97588.22;5034230;28;20029;-75
2023/12/12 05:44:48;;;;;;;27.58;11.52;;;;;;;7.52;85.39;97590.09;5020131;28;20041;-74
2023/12/12 05:47:14;;;;;;;24.58;9.73;;;;;;;7.41;85.54;97574.88;5042512;28;20025;-74
2023/12/12 05:49:39;;;;;;;25.40;7.75;;;;;;;7.46;85.22;97591.06;5044352;28;20481;-75
2023/12/12 05:52:05;;;;;;;22.52;7.50;;;;;;;7.23;86.24;97575.09;5035033;28;20029;-74
2023/12/12 05:54:30;;;;;;;25.05;7.80;;;;;;;7.35;86.21;97587.38;5045740;28;20414;-74
2023/12/12 05:56:55;;;;;;;23.20;9.10;;;;;;;7.18;86.02;97589.19;5035284;28;20076;-74
2023/12/12 05:59:21;;;;;;;29.48;7.88;;;;;;;7.23;85.85;97596.50;5041447;28;20037;-74
2023/12/12 06:01:46;;;;;;;24.98;7.70;;;;;;;7.13;85.87;97572.19;5041678;28;20049;-74
2023/12/12 06:04:12;;;;;;;38.08;13.30;;;;;;;7.11;85.58;97571.63;5041479;28;20042;-74
2023/12/12 06:06:45;;;;;;;37.85;17.25;;;;;;;7.08;86.02;97575.59;5036979;28;20434;-75
2023/12/12 06:09:11;;;;;;;28.60;13.15;;;;;;;7.08;86.13;97577.44;5036993;28;20071;-74
2023/12/12 06:11:36;;;;;;;34.83;9.82;;;;;;;6.92;86.06;97557.59;5041695;28;20049;-74
2023/12/12 06:14:03;;;;;;;27.13;8.23;;;;;;;7.02;85.86;97578.41;5021702;28;20029;-74
2023/12/12 06:16:33;;;;;;;25.50;9.05;;;;;;;7.12;85.69;97594.69;5051688;28;20472;-74
2023/12/12 06:18:58;;;;;;;26.25;8.20;;;;;;;7.08;86.31;97586.28;5023589;28;20038;-74
2023/12/12 06:21:23;;;;;;;26.52;9.18;;;;;;;7.04;85.83;97584.34;5031265;28;20023;-74
2023/12/12 06:23:49;;;;;;;27.25;9.18;;;;;;;7.03;85.15;97580.00;5015750;28;20037;-74
2023/12/12 06:26:15;;;;;;;24.15;9.77;;;;;;;7.05;85.90;97591.31;5033631;28;20017;-74
2023/12/12 06:28:40;;;;;;;26.80;9.38;;;;;;;7.06;85.73;97584.91;5035056;28;20029;-74
2023/12/12 06:31:07;;;;;;;29.88;11.02;;;;;;;7.17;86.04;97597.44;5040630;28;20035;-74
2023/12/12 06:33:33;;;;;;;33.70;14.55;;;;;;;7.16;86.45;97590.47;5033284;28;20045;-74
2023/12/12 06:35:58;;;;;;;32.33;12.05;;;;;;;7.13;86.57;97597.13;5037854;28;20071;-74
2023/12/12 06:38:24;;;;;;;25.95;10.23;;;;;;;7.11;85.39;97582.34;5033930;28;20076;-74
2023/12/12 06:40:49;;;;;;;30.90;10.38;;;;;;;6.94;86.05;97555.50;5039394;28;20033;-75
2023/12/12 06:43:15;;;;;;;29.92;10.57;;;;;;;6.98;85.57;97562.00;5036735;28;20048;-74
2023/12/12 06:45:41;;;;;;;25.13;11.25;;;;;;;7.09;85.68;97579.09;5040501;28;20023;-74
2023/12/12 06:48:06;;;;;;;26.48;10.82;;;;;;;7.11;85.86;97587.69;5016032;28;20116;-74
2023/12/12 06:50:32;;;;;;;22.92;9.07;;;;;;;7.11;85.50;97585.00;5031782;28;20025;-74
2023/12/12 06:52:57;;;;;;;24.67;7.97;;;;;;;6.89;86.19;97550.03;5014997;28;20037;-74
2023/12/12 06:55:22;;;;;;;27.58;9.02;;;;;;;6.99;86.05;97574.34;5047614;28;20056;-75
2023/12/12 06:57:48;;;;;;;24.40;9.48;;;;;;;6.94;86.24;97583.06;5017041;28;20520;-74
2023/12/12 07:00:14;;;;;;;23.08;10.60;;;;;;;6.94;86.51;97556.31;5013907;28;20164;-74
2023/12/12 07:02:40;;;;;;;22.67;9.30;;;;;;;7.13;85.95;97570.34;5033743;28;20125;-74
2023/12/12 07:05:05;;;;;;;25.40;8.80;;;;;;;7.06;86.08;97547.44;5012692;28;20153;-74
2023/12/12 07:07:32;;;;;;;22.88;8.20;;;;;;;7.23;86.04;97561.69;5043971;28;20049;-74
2023/12/12 07:09:58;;;;;;;24.00;6.75;;;;;;;7.13;85.93;97532.03;5038655;28;20559;-75
2023/12/12 07:12:24;;;;;;;30.23;8.15;;;;;;;7.23;85.71;97542.94;5040071;28;20057;-74
2023/12/12 07:14:50;;;;;;;23.73;7.93;;;;;;;7.33;86.61;97553.84;5032254;28;20022;-74
2023/12/12 07:17:15;;;;;;;19.10;6.57;;;;;;;7.24;85.52;97545.38;5033840;28;20044;-74
2023/12/12 07:19:41;;;;;;;30.13;7.40;;;;;;;7.36;86.00;97564.06;5040521;28;20029;-74
2023/12/12 07:22:06;;;;;;;30.15;7.75;;;;;;;7.25;85.79;97562.25;5032006;28;20034;-74
2023/12/12 07:24:32;;;;;;;24.52;7.50;;;;;;;7.10;86.14;97553.91;5035412;28;20109;-74
2023/12/12 07:26:57;;;;;;;23.30;7.15;;;;;;;7.06;86.49;97564.31;5037563;28;20482;-74
2023/12/12 07:29:23;;;;;;;29.95;8.63;;;;;;;7.09;86.67;97557.66;5032851;28;20067;-74
2023/12/12 07:31:48;;;;;;;30.92;8.30;;;;;;;7.13;86.22;97564.16;5030485;28;20091;-74
2023/12/12 07:34:14;;;;;;;22.08;6.88;;;;;;;7.09;86.83;97563.03;5031804;28;20044;-74
2023/12/12 07:36:41;;;;;;;23.67;7.40;;;;;;;7.18;86.83;97569.63;5019256;28;20090;-74
2023/12/12 07:39:06;;;;;;;23.80;7.50;;;;;;;7.19;86.35;97579.28;5026853;28;20040;-74
2023/12/12 07:41:32;;;;;;;19.77;7.28;;;;;;;7.18;86.27;97561.59;5032546;28;20049;-74
2023/12/12 07:43:57;;;;;;;27.05;8.52;;;;;;;7.25;86.44;97568.44;5036747;28;20032;-74
2023/12/12 07:46:23;;;;;;;20.77;6.75;;;;;;;7.20;86.16;97560.31;5038248;28;20397;-73
2023/12/12 07:48:49;;;;;;;21.88;7.90;;;;;;;7.20;86.43;97559.47;5031272;28;20052;-74
2023/12/12 07:51:14;;;;;;;24.05;7.60;;;;;;;7.20;85.79;97554.13;5039951;28;20482;-74
2023/12/12 07:53:40;;;;;;;19.98;6.78;;;;;;;7.26;86.02;97569.25;5033328;28;20029;-74
2023/12/12 07:56:05;;;;;;;25.83;6.78;;;;;;;7.33;86.39;97581.44;5031301;28;20037;-74
2023/12/12 07:58:31;;;;;;;25.42;7.30;;;;;;;7.20;86.50;97548.78;5035020;28;20105;-74
2023/12/12 08:00:57;;;;;;;22.65;7.13;;;;;;;7.25;86.61;97554.22;5039857;28;20059;-76
2023/12/12 08:03:22;;;;;;;22.38;7.35;;;;;;;7.34;85.92;97567.00;5013121;28;20041;-74
2023/12/12 08:05:48;;;;;;;23.27;8.32;;;;;;;7.37;86.65;97563.03;5036392;28;20048;-75
2023/12/12 08:08:14;;;;;;;26.48;8.32;;;;;;;7.31;86.24;97561.28;5046067;28;20504;-75
2023/12/12 08:10:39;;;;;;;22.35;8.05;;;;;;;7.36;86.19;97545.31;5032081;28;20037;-75
2023/12/12 08:13:04;;;;;;;31.73;9.02;;;;;;;7.43;86.22;97548.69;5027756;28;20098;-74
2023/12/12 08:15:30;;;;;;;27.73;9.60;;;;;;;7.42;85.63;97536.34;5033098;28;20037;-74
2023/12/12 08:17:56;;;;;;;27.85;9.57;;;;;;;7.57;85.57;97555.38;5042153;28;20032;-74
2023/12/12 08:20:21;;;;;;;29.60;9.38;;;;;;;7.60;86.01;97545.00;5016823;28;20037;-74
2023/12/12 08:22:46;;;;;;;30.38;13.25;;;;;;;7.51;86.56;97540.25;5037956;28;20394;-74
2023/12/12 08:25:12;;;;;;;25.20;11.73;;;;;;;7.45;86.08;97531.31;5035753;28;20056;-74
2023/12/12 08:27:37;;;;;;;24.60;9.50;;;;;;;7.59;85.66;97540.66;5034635;28;20025;-74
2023/12/12 08:30:07;;;;;;;24.98;9.05;;;;;;;7.61;86.49;97545.78;5039829;28;20109;-74
2023/12/12 08:32:33;;;;;;;27.33;9.10;;;;;;;7.63;85.93;97543.69;5005033;28;20052;-74
2023/12/12 08:34:58;;;;;;;26.48;8.70;;;;;;;7.57;86.15;97528.56;5033998;28;20033;-74
2023/12/12 08:37:24;;;;;;;27.95;10.02;;;;;;;7.55;86.69;97526.13;5040266;28;20397;-74
2023/12/12 08:39:49;;;;;;;31.98;11.10;;;;;;;7.69;86.46;97540.03;5013701;28;20033;-74
2023/12/12 08:42:14;;;;;;;27.83;9.63;;;;;;;7.61;86.25;97521.66;5038886;28;20388;-74
2023/12/12 08:44:41;;;;;;;29.15;8.52;;;;;;;7.54;86.71;97512.97;5023290;28;20034;-74
2023/12/12 08:47:09;;;;;;;25.50;8.15;;;;;;;7.62;86.78;97521.44;5036642;28;20375;-74
2023/12/12 08:49:38;;;;;;;32.42;9.07;;;;;;;7.72;87.16;97531.53;5030007;28;20033;-74
2023/12/12 08:52:06;;;;;;;24.30;7.70;;;;;;;7.63;86.55;97516.91;5042343;28;20025;-73
2023/12/12 08:54:31;;;;;;;26.27;7.95;;;;;;;7.73;86.59;97516.22;5025553;28;20045;-74
2023/12/12 08:56:57;;;;;;;22.20;8.35;;;;;;;7.82;87.47;97525.53;5037124;28;20074;-74
2023/12/12 08:59:22;;;;;;;24.27;8.50;;;;;;;7.65;86.85;97498.72;5031626;28;20035;-73
2023/12/12 09:01:48;;;;;;;20.35;8.05;;;;;;;7.86;87.50;97511.38;5037834;28;20646;-74
2023/12/12 09:04:16;;;;;;;27.05;8.25;;;;;;;7.88;87.23;97506.59;5037576;28;20048;-74
2023/12/12 09:06:42;;;;;;;27.23;8.05;;;;;;;7.85;87.24;97482.13;5026751;28;20017;-73
2023/12/12 09:09:08;;;;;;;25.33;8.20;;;;;;;7.98;87.12;97493.31;5019243;28;20567;-75
2023/12/12 09:11:35;;;;;;;20.10;7.55;;;;;;;7.96;87.35;97492.75;5038032;28;20021;-74
2023/12/12 09:14:01;;;;;;;25.60;7.95;;;;;;;7.93;87.72;97485.22;5029616;28;20041;-74
2023/12/12 09:16:26;;;;;;;26.83;7.63;;;;;;;7.96;87.49;97489.28;5033087;28;20530;-73
2023/12/12 09:18:51;;;;;;;27.25;8.40;;;;;;;7.97;88.12;97486.34;5041562;28;20030;-74
2023/12/12 09:21:17;;;;;;;25.83;8.27;;;;;;;8.04;87.46;97489.69;5030213;28;20482;-74
2023/12/12 09:23:42;;;;;;;24.52;8.45;;;;;;;8.10;87.58;97480.66;5040107;28;20513;-74
2023/12/12 09:26:14;;;;;;;21.88;8.38;;;;;;;8.14;87.89;97499.75;5037710;28;20391;-74
2023/12/12 09:28:43;;;;;;;23.38;7.85;;;;;;;8.11;87.70;97476.91;5033175;28;20071;-74
2023/12/12 09:31:09;;;;;;;22.02;7.60;;;;;;;8.28;87.85;97493.03;5042910;28;20438;-74
2023/12/12 09:33:35;;;;;;;30.80;11.07;;;;;;;8.28;87.44;97495.69;5033496;28;20044;-74
2023/12/12 09:36:01;;;;;;;29.80;10.75;;;;;;;8.28;87.63;97480.38;5015328;28;20060;-72
2023/12/12 09:38:26;;;;;;;27.10;8.35;;;;;;;8.37;87.07;97496.06;5035485;28;20045;-73
2023/12/12 09:40:52;;;;;;;31.92;8.73;;;;;;;8.40;87.42;97484.88;5016007;28;20068;-73
2023/12/12 09:43:18;;;;;;;21.70;7.15;;;;;;;8.62;87.78;97505.28;5038725;28;20041;-72
2023/12/12 09:45:47;;;;;;;22.17;7.05;;;;;;;8.71;86.98;97506.47;5038429;28;20033;-73
2023/12/12 09:48:15;;;;;;;24.80;6.93;;;;;;;8.69;86.45;97484.44;5035526;28;20061;-74
2023/12/12 09:50:42;;;;;;;25.00;6.97;;;;;;;8.58;86.92;97460.41;5025097;28;20021;-72
2023/12/12 09:53:08;;;;;;;26.25;7.20;;;;;;;8.65;86.83;97467.22;5010997;28;20044;-72
2023/12/12 09:55:33;;;;;;;26.70;7.53;;;;;;;8.69;87.01;97473.69;5044477;28;20025;-73
2023/12/12 09:57:59;;;;;;;24.45;8.10;;;;;;;8.73;86.61;97457.88;5038464;28;20662;-72
2023/12/12 10:00:24;;;;;;;25.05;7.07;;;;;;;8.68;86.39;97439.84;5045193;28;20154;-73
2023/12/12 10:02:55;;;;;;;21.17;7.28;;;;;;;8.63;86.55;97425.59;5044940;28;20124;-75
2023/12/12 10:05:20;;;;;;;20.75;7.72;;;;;;;8.66;86.27;97425.09;5045150;28;20037;-72
2023/12/12 10:07:46;;;;;;;22.63;6.55;;;;;;;8.70;86.53;97434.25;5040993;28;20393;-74
2023/12/12 10:10:12;;;;;;;19.55;6.50;;;;;;;8.73;86.11;97436.41;5044368;28;20037;-70
2023/12/12 10:12:38;;;;;;;24.40;8.15;;;;;;;8.71;86.28;97428.63;5039116;28;20119;-73
2023/12/12 10:15:04;;;;;;;21.52;7.45;;;;;;;8.72;86.24;97418.72;5043371;28;20075;-73
2023/12/12 10:17:38;;;;;;;24.80;8.68;;;;;;;8.75;85.31;97418.22;5050257;28;20065;-72
2023/12/12 10:20:05;;;;;;;29.52;7.57;;;;;;;8.76;85.51;97415.25;5041559;28;20041;-73
2023/12/12 10:22:31;;;;;;;26.33;7.88;;;;;;;8.77;85.66;97416.09;5042084;28;20485;-72
2023/12/12 10:25:10;;;;;;;23.70;7.85;;;;;;;8.82;85.26;97410.78;5032960;28;20044;-73
2023/12/12 10:27:36;;;;;;;31.27;11.70;;;;;;;8.91;85.29;97406.56;5045281;28;20044;-73
2023/12/12 10:30:04;;;;;;;26.33;8.93;;;;;;;8.96;85.09;97396.69;5020997;28;20025;-72
2023/12/12 10:32:30;;;;;;;23.02;7.68;;;;;;;8.98;84.85;97391.06;5043450;28;20095;-73
2023/12/12 10:34:56;;;;;;;25.90;8.77;;;;;;;8.98;85.14;97391.06;5050368;28;20024;-73
2023/12/12 10:37:22;;;;;;;28.17;9.20;;;;;;;9.12;85.10;97413.78;5035717;28;20065;-72
2023/12/12 10:39:49;;;;;;;25.92;10.27;;;;;;;9.20;84.98;97425.91;5036220;28;20080;-72
2023/12/12 10:42:15;;;;;;;25.98;10.07;;;;;;;9.24;84.81;97424.34;5034226;28;20038;-72
2023/12/12 10:44:46;;;;;;;25.75;8.98;;;;;;;9.24;84.87;97411.72;5046983;28;20032;-72
2023/12/12 10:47:13;;;;;;;25.17;8.98;;;;;;;9.19;84.54;97398.25;5039328;28;20048;-72
2023/12/12 10:49:42;;;;;;;30.92;8.85;;;;;;;9.29;84.86;97408.28;5032689;28;20112;-72
2023/12/12 10:52:10;;;;;;;29.30;8.93;;;;;;;9.27;84.78;97392.41;5033222;28;20041;-72
2023/12/12 10:54:36;;;;;;;30.08;8.68;;;;;;;9.30;84.22;97388.41;5035584;28;20026;-74
2023/12/12 10:57:02;;;;;;;22.02;8.02;;;;;;;9.44;84.30;97395.78;5035781;28;20036;-74
2023/12/12 10:59:28;;;;;;;24.40;8.52;;;;;;;9.50;84.62;97389.38;5039186;28;20056;-74
2023/12/12 11:01:53;;;;;;;26.98;7.97;;;;;;;9.43;84.34;97372.66;5028239;28;20063;-74
2023/12/12 11:04:21;;;;;;;22.90;8.50;;;;;;;9.55;84.56;97380.53;5035491;28;20053;-73
2023/12/12 11:06:46;;;;;;;22.30;7.95;;;;;;;9.54;84.48;97362.81;5039551;28;20489;-74
2023/12/12 11:09:13;;;;;;;23.48;8.90;;;;;;;9.60;84.08;97357.19;5015123;28;20101;-74
2023/12/12 11:11:43;;;;;;;27.60;9.05;;;;;;;9.49;83.81;97334.00;5016899;28;20037;-74
2023/12/12 11:14:08;;;;;;;25.70;8.60;;;;;;;9.64;84.09;97357.47;5035068;28;20386;-73
2023/12/12 11:16:34;;;;;;;24.52;8.48;;;;;;;9.65;83.72;97349.16;5048156;28;20032;-74
2023/12/12 11:19:01;;;;;;;24.98;7.97;;;;;;;9.70;83.72;97345.69;5013809;28;20092;-74
2023/12/12 11:21:43;;;;;;;22.58;8.85;;;;;;;9.73;82.84;97351.34;5034946;28;20116;-75
2023/12/12 11:24:09;;;;;;;29.63;7.95;;;;;;;9.79;82.84;97343.31;5044036;28;20567;-74
2023/12/12 11:26:36;;;;;;;17.27;7.28;;;;;;;9.87;82.08;97357.06;5043295;28;20029;-74